Latest Weather Observations for Lake Macquarie - Cooranbong

IDN60801

Issued at 8:35 am EDT Wednesday 26 November 2014 (issued every 30 minutes, with the page automatically refreshed every 10 minutes)

About weather observations | Map of weather stations | Latest weather observations for NSW | Other Formats
Station Details ID: 061412 Name: LAKE MACQUARIE AWS Lat: -33.09 Lon: 151.46 Height: 6.0 m
Data from the previous 72 hours. | See also: Recent months at Lake Macquarie - Cooranbong
Date/Time
EDT
Temp
°C
App
Temp
°C
Dew
Point
Rel
Hum
%
Delta-T
°C
Wind Press
QNH
hPa
Press
MSL
hPa
Rain
since 9 am
mm
Dir
 
Spd
km/h
Gust
km/h
Spd
kts
Gust
kts
26/08:30am 20.1 21.2 15.7 76 2.6 E 4 9 2 5 1019.6 1019.6 0.0
26/08:00am 18.7 20.5 15.6 82 1.8 CALM 0 0 0 0 1019.6 1019.6 0.0
26/07:30am 18.1 20.3 16.4 90 1.0 CALM 0 0 0 0 1019.5 1019.5 0.0
26/07:00am 17.5 19.5 16.0 91 0.9 CALM 0 0 0 0 1019.5 1019.5 0.0
26/06:30am 16.6 18.4 15.5 93 0.6 CALM 0 0 0 0 1019.3 1019.3 0.0
26/06:00am 16.3 18.0 15.3 94 0.6 CALM 0 0 0 0 1019.4 1019.4 0.0
26/05:30am 16.2 17.5 15.2 94 0.6 N 2 4 1 2 1019.3 1019.3 0.0
26/05:00am 16.1 17.7 15.0 93 0.6 CALM 0 0 0 0 1019.0 1019.0 0.0
26/04:30am 16.3 18.0 15.2 93 0.6 CALM 0 0 0 0 1019.0 1019.0 0.0
26/04:00am 16.5 18.3 15.4 93 0.6 CALM 0 0 0 0 1019.1 1019.1 0.0
26/03:30am 16.3 18.0 15.2 93 0.6 CALM 0 0 0 0 1019.2 1019.2 0.0
26/03:00am 16.3 18.0 15.3 94 0.6 CALM 0 0 0 0 1019.3 1019.3 0.0
26/02:30am 15.7 17.2 14.6 93 0.6 CALM 0 0 0 0 1019.5 1019.5 0.0
26/02:00am 15.9 17.4 14.6 92 0.7 CALM 0 0 0 0 1019.7 1019.7 0.0
26/01:30am 15.9 17.2 14.1 89 1.0 CALM 0 0 0 0 1019.7 1019.7 0.0
26/01:00am 16.8 18.2 14.4 86 1.4 CALM 0 0 0 0 1020.2 1020.2 0.0
26/12:30am 17.5 18.9 14.4 82 1.8 CALM 0 0 0 0 1020.5 1020.5 0.0
26/12:00am 18.9 20.0 14.6 76 2.5 ENE 2 4 1 2 1020.5 1020.5 0.0
 
Date/Time
EDT
Temp
°C
App
Temp
°C
Dew
Point
Rel
Hum
%
Delta-T
°C
Wind Press
QNH
hPa
Press
MSL
hPa
Rain
since 9 am
mm
Dir
 
Spd
km/h
Gust
km/h
Spd
kts
Gust
kts
25/11:30pm 18.8 20.4 14.9 78 2.3 CALM 0 2 0 1 1020.5 1020.5 0.0
25/11:00pm 19.0 19.7 14.5 75 2.6 NNE 4 6 2 3 1020.6 1020.6 0.0
25/10:30pm 19.2 19.9 14.5 74 2.7 NE 4 7 2 4 1020.4 1020.4 0.0
25/10:00pm 19.4 20.1 14.6 74 2.8 NNE 4 7 2 4 1020.3 1020.3 0.0
25/09:30pm 19.3 20.4 14.6 74 2.7 NE 2 6 1 3 1020.0 1020.0 0.0
25/09:00pm 19.3 20.0 14.6 74 2.7 ENE 4 9 2 5 1019.7 1019.7 0.0
25/08:30pm 19.4 20.1 14.4 73 2.9 NE 4 9 2 5 1019.3 1019.3 0.0
25/08:00pm 19.9 20.3 14.7 72 3.0 NE 6 9 3 5 1019.0 1019.0 0.0
25/07:30pm 20.1 20.2 14.5 70 3.3 ENE 7 15 4 8 1018.4 1018.4 0.0
25/07:00pm 20.4 20.5 14.5 69 3.4 E 7 15 4 8 1018.0 1018.0 0.0
25/06:30pm 20.4 20.5 14.5 69 3.4 ESE 7 13 4 7 1017.4 1017.4 0.0
25/06:00pm 20.4 20.1 14.5 69 3.4 ESE 9 17 5 9 1017.1 1017.1 0.0
25/05:30pm 20.5 20.2 14.4 68 3.6 ESE 9 15 5 8 1017.0 1017.0 0.0
25/05:00pm 20.5 19.5 14.6 69 3.4 ESE 13 20 7 11 1016.9 1016.9 0.0
25/04:30pm 20.8 19.8 14.7 68 3.6 ESE 13 22 7 12 1016.8 1016.8 0.0
25/04:00pm 21.6 22.0 15.2 67 3.8 SSE 7 15 4 8 1016.6 1016.6 0.0
25/03:30pm 21.7 21.3 15.1 66 3.9 SE 11 17 6 9 1016.3 1016.3 0.0
25/03:00pm 22.2 22.2 15.1 64 4.2 SSE 9 19 5 10 1016.4 1016.4 0.0
25/02:30pm 22.2 21.9 15.5 66 4.0 SSE 11 17 6 9 1016.6 1016.6 0.0
25/02:00pm 22.6 22.5 15.9 66 4.0 SSE 11 26 6 14 1016.4 1016.4 0.0
25/01:30pm 23.2 23.3 16.5 66 4.1 SE 11 28 6 15 1016.2 1016.2 0.0
25/01:00pm 23.3 22.4 14.8 59 5.0 S 13 28 7 15 1015.8 1015.8 0.0
25/12:30pm 23.3 22.9 16.1 64 4.4 S 13 24 7 13 1015.7 1015.7 0.0
25/12:00pm 26.7 27.6 16.6 54 6.2 SW 7 15 4 8 1015.1 1015.1 0.0
25/11:30am 26.9 26.3 15.6 50 6.9 WSW 13 22 7 12 1014.8 1014.8 0.0
25/11:00am 26.8 26.7 16.1 52 6.6 SW 11 19 6 10 1014.3 1014.3 0.0
25/10:30am 26.6 27.8 17.4 57 5.8 W 7 15 4 8 1014.1 1014.1 0.0
25/10:00am 25.6 26.3 17.0 59 5.3 W 9 17 5 9 1014.0 1014.0 0.0
25/09:30am 26.1 26.2 16.6 55 5.9 W 11 20 6 11 1013.3 1013.3 0.0
25/09:00am 25.7 25.8 16.5 56 5.7 W 11 20 6 11 1012.9 1012.9 15.6
25/08:30am 24.9 26.0 17.9 65 4.4 W 9 20 5 11 1012.6 1012.6 15.6
25/08:00am 23.8 25.6 18.2 71 3.5 W 6 11 3 6 1012.2 1012.2 15.6
25/07:30am 22.7 24.4 18.0 75 2.9 SW 6 13 3 7 1011.1 1011.1 15.6
25/07:24am 22.7 24.7 18.7 78 2.5 WNW 6 13 3 7 1011.2 1011.2 15.6
25/07:00am 22.7 24.1 18.7 78 2.5 N 9 15 5 8 1009.2 1009.2 15.6
25/06:30am 22.4 23.6 19.0 81 2.2 N 11 17 6 9 1009.5 1009.5 15.6
25/06:00am 22.6 25.1 19.0 80 2.3 N 4 9 2 5 1010.3 1010.3 15.6
25/05:30am 22.8 24.7 18.6 77 2.6 N 6 7 3 4 1010.1 1010.1 15.6
25/05:00am 23.2 25.6 18.9 77 2.7 N 4 6 2 3 1009.8 1009.8 15.6
25/04:30am 23.0 25.6 19.2 79 2.4 NNW 4 7 2 4 1009.3 1009.3 15.6
25/04:00am 23.2 25.9 19.4 79 2.4 NNW 4 9 2 5 1009.0 1009.0 15.6
25/03:30am 23.9 26.0 19.0 74 3.1 NW 6 13 3 7 1009.5 1009.5 15.6
25/03:00am 24.3 25.9 19.1 73 3.3 WNW 9 20 5 11 1010.0 1010.0 15.6
25/02:30am 22.2 25.9 19.9 87 1.5 CALM 0 0 0 0 1009.6 1009.6 15.6
25/02:00am 23.1 25.5 19.7 81 2.2 N 6 9 3 5 1009.2 1009.2 15.6
25/01:30am 23.1 26.0 19.9 82 2.1 NNW 4 9 2 5 1009.9 1009.9 15.6
25/01:00am 23.3 25.9 20.1 82 2.1 NNW 6 11 3 6 1010.4 1010.4 15.6
25/12:30am 23.6 26.0 20.1 81 2.3 NNW 7 13 4 7 1011.0 1011.0 15.6
25/12:00am 23.4 26.3 20.7 85 1.8 NW 6 13 3 7 1010.9 1010.9 15.4
 
Date/Time
EDT
Temp
°C
App
Temp
°C
Dew
Point
Rel
Hum
%
Delta-T
°C
Wind Press
QNH
hPa
Press
MSL
hPa
Rain
since 9 am
mm
Dir
 
Spd
km/h
Gust
km/h
Spd
kts
Gust
kts
24/11:30pm 22.5 25.9 21.7 95 0.5 N 6 9 3 5 1010.0 1010.0 15.4
24/11:00pm 22.6 26.5 21.8 95 0.5 NNE 4 6 2 3 1010.1 1010.1 15.4
24/10:30pm 22.7 26.0 21.5 93 0.8 NW 6 11 3 6 1010.6 1010.6 15.2
24/10:00pm 22.7 26.6 21.9 95 0.5 WNW 4 7 2 4 1010.3 1010.3 15.2
24/09:30pm 22.7 27.0 21.9 95 0.5 SW 2 6 1 3 1008.5 1008.5 15.2
24/09:00pm 22.8 26.2 22.0 95 0.5 ENE 7 17 4 9 1008.8 1008.8 15.2
24/08:30pm 22.7 26.2 21.9 95 0.5 ENE 6 15 3 8 1009.7 1009.7 14.4
24/08:00pm 22.8 26.4 22.0 95 0.5 SW 6 7 3 4 1009.3 1009.3 12.8
24/07:30pm 22.7 26.5 21.7 94 0.7 S 4 9 2 5 1007.7 1007.7 12.8
24/07:00pm 22.9 26.7 21.7 93 0.8 WNW 4 7 2 4 1008.0 1008.0 12.4
24/06:30pm 22.4 25.4 21.2 93 0.8 E 7 13 4 7 1007.8 1007.8 12.4
24/06:24pm 22.5 25.6 21.1 92 0.9 ESE 6 9 3 5 1008.4 1008.4 12.2
24/06:04pm 22.8 23.8 21.1 90 1.1 NW 17 28 9 15 1010.4 1010.4 8.4
24/06:00pm 22.5 24.5 20.8 90 1.1 SW 11 22 6 12 1008.3 1008.3 8.4
24/05:30pm 23.2 26.2 20.9 87 1.5 S 6 19 3 10 1007.9 1007.9 2.8
24/05:23pm 23.4 26.9 21.1 87 1.5 S 4 13 2 7 1007.1 1007.1 2.8
24/05:00pm 25.1 27.6 19.9 73 3.4 NNE 6 19 3 10 1009.1 1009.1 0.8
24/04:51pm 25.3 27.4 19.4 70 3.8 E 7 15 4 8 1008.7 1008.7 0.0
24/04:30pm 25.2 26.9 19.3 70 3.8 E 9 15 5 8 1006.7 1006.7 0.0
24/04:00pm 24.5 26.7 19.6 74 3.2 SE 7 11 4 6 1007.1 1007.1 0.0
24/03:30pm 24.7 26.4 19.3 72 3.5 E 9 17 5 9 1006.9 1006.9 0.0
24/03:00pm 25.0 25.9 18.4 66 4.2 E 11 19 6 10 1007.7 1007.7 0.0
24/02:30pm 27.1 28.0 19.2 62 5.1 E 13 22 7 12 1008.3 1008.3 0.0
24/02:00pm 27.4 29.0 20.0 64 4.8 E 11 19 6 10 1009.2 1009.2 0.0
24/01:30pm 27.3 28.7 19.6 62 5.0 ENE 11 17 6 9 1009.8 1009.8 0.0
24/01:00pm 28.3 30.1 20.3 62 5.3 E 11 17 6 9 1010.5 1010.5 0.0
24/12:30pm 28.4 30.5 20.2 61 5.4 ESE 9 15 5 8 1011.1 1011.1 0.0
24/12:00pm 28.2 29.5 19.2 58 5.8 E 11 17 6 9 1011.7 1011.7 0.0
24/11:30am 28.1 29.6 18.8 57 6.0 ESE 9 15 5 8 1012.3 1012.3 0.0
24/11:00am 28.3 30.3 19.2 57 5.9 E 7 13 4 7 1012.7 1012.7 0.0
24/10:30am 27.1 28.9 18.7 60 5.4 E 7 15 4 8 1013.1 1013.1 0.0
24/10:00am 25.8 28.7 19.0 66 4.4 NE 2 6 1 3 1013.6 1013.6 0.0
24/09:30am 25.1 27.6 19.0 69 3.9 SW 4 9 2 5 1014.2 1014.2 0.0
24/09:00am 25.2 27.8 20.0 73 3.4 SW 6 11 3 6 1014.3 1014.3 0.0
24/08:30am 23.7 25.4 18.6 73 3.2 SW 7 15 4 8 1014.6 1014.6 0.0
24/08:00am 23.8 25.9 18.9 74 3.1 SE 6 11 3 6 1014.3 1014.3 0.0
24/07:30am 23.5 26.3 19.6 79 2.5 SE 4 7 2 4 1014.4 1014.4 0.0
24/07:00am 22.0 25.4 19.4 85 1.7 CALM 0 4 0 2 1014.1 1014.1 0.0
24/06:30am 21.8 24.8 19.2 85 1.6 SW 2 7 1 4 1013.9 1013.9 0.0
24/06:00am 21.8 24.8 19.2 85 1.6 SW 2 7 1 4 1013.7 1013.7 0.0
24/05:30am 21.8 24.4 19.2 85 1.6 E 4 6 2 3 1013.8 1013.8 0.0
24/05:00am 21.8 25.2 19.4 86 1.5 CALM 0 0 0 0 1013.5 1013.5 0.0
24/04:30am 21.7 23.9 19.3 86 1.5 E 6 9 3 5 1013.2 1013.2 0.0
24/04:00am 21.8 24.0 19.2 85 1.6 E 6 9 3 5 1012.5 1012.5 0.0
24/03:30am 22.7 24.5 19.5 82 2.0 NE 9 17 5 9 1012.5 1012.5 0.0
24/03:00am 23.4 25.5 19.3 78 2.6 ESE 7 11 4 6 1011.2 1011.2 0.0
24/02:30am 22.2 24.5 19.4 84 1.8 E 6 7 3 4 1010.9 1010.9 0.0
24/02:00am 22.0 25.4 19.4 85 1.7 CALM 0 0 0 0 1011.1 1011.1 0.0
24/01:30am 22.0 24.3 19.5 86 1.6 W 6 9 3 5 1012.0 1012.0 0.0
24/01:00am 21.7 24.7 19.3 86 1.5 SE 2 6 1 3 1012.8 1012.8 0.0
24/12:30am 21.8 25.2 19.4 86 1.5 CALM 0 0 0 0 1013.5 1013.5 0.0
24/12:00am 22.0 25.0 19.2 84 1.8 N 2 4 1 2 1013.8 1013.8 0.0
 
Date/Time
EDT
Temp
°C
App
Temp
°C
Dew
Point
Rel
Hum
%
Delta-T
°C
Wind Press
QNH
hPa
Press
MSL
hPa
Rain
since 9 am
mm
Dir
 
Spd
km/h
Gust
km/h
Spd
kts
Gust
kts
23/11:30pm 22.6 25.9 19.0 80 2.3 CALM 0 0 0 0 1013.9 1013.9 0.0
23/11:00pm 22.9 25.8 19.1 79 2.4 E 2 6 1 3 1014.1 1014.1 0.0
23/10:30pm 23.4 26.3 19.1 77 2.7 E 2 7 1 4 1014.4 1014.4 0.0
23/10:00pm 23.7 25.9 19.2 76 2.9 SSE 6 13 3 7 1013.8 1013.8 0.0
23/09:30pm 24.4 24.6 18.6 70 3.7 S 15 22 8 12 1013.3 1013.3 0.0
23/09:19pm 25.9 25.4 17.8 61 5.1 S 17 39 9 21 1013.3 1013.3 0.0
23/09:00pm 27.8 29.1 16.1 49 7.2 SSW 4 11 2 6 1011.3 1011.3 0.0
23/08:30pm 28.5 28.2 15.4 45 8.0 N 11 20 6 11 1009.6 1009.6 0.0
23/08:00pm 28.3 29.0 16.2 47 7.5 N 7 17 4 9 1009.7 1009.7 0.0
23/07:30pm 28.8 29.5 16.0 45 7.9 N 7 15 4 8 1009.2 1009.2 0.0
23/07:00pm 29.6 30.9 16.1 44 8.4 NW 4 9 2 5 1009.1 1009.1 0.0
23/06:30pm 29.9 29.4 16.0 43 8.6 WNW 13 26 7 14 1008.5 1008.5 0.0
23/06:00pm 28.4 30.5 19.3 57 5.9 N 7 13 4 7 1008.7 1008.7 0.0
23/05:30pm 28.9 31.3 18.7 54 6.6 SSE 4 7 2 4 1007.3 1007.3 0.0
23/05:00pm 30.6 32.7 18.0 47 8.1 S 4 11 2 6 1007.0 1007.0 0.0
23/04:30pm 31.1 31.8 18.8 48 8.0 ESE 13 22 7 12 1006.6 1006.6 0.0
23/04:00pm 30.8 31.3 19.2 50 7.6 ESE 15 26 8 14 1006.8 1006.8 0.0
23/03:30pm 29.9 32.0 21.0 59 5.9 SE 11 20 6 11 1007.0 1007.0 0.0
23/03:00pm 30.2 31.9 21.0 58 6.1 ESE 13 22 7 12 1007.4 1007.4 0.0
23/02:30pm 29.7 31.6 21.4 61 5.6 ESE 13 19 7 10 1008.1 1008.1 0.0
23/02:00pm 28.9 29.8 20.9 62 5.3 ESE 17 26 9 14 1008.5 1008.5 0.0
23/01:30pm 30.3 31.4 20.5 55 6.5 E 15 22 8 12 1009.0 1009.0 0.0
23/01:00pm 30.9 32.5 19.9 52 7.3 ESE 11 19 6 10 1009.7 1009.7 0.0
23/12:30pm 31.6 33.6 20.8 52 7.2 ESE 11 17 6 9 1010.0 1010.0 0.0
23/12:00pm 32.0 33.3 20.9 52 7.4 ESE 15 19 8 10 1010.3 1010.3 0.0
23/11:30am 32.5 35.8 21.4 52 7.5 E 6 15 3 8 1010.8 1010.8 0.0
23/11:00am 31.1 34.5 21.0 55 6.8 E 4 7 2 4 1011.2 1011.2 0.0
23/10:30am 29.6 32.9 20.7 58 5.9 E 4 7 2 4 1011.4 1011.4 0.0
23/10:00am 28.5 31.2 20.2 60 5.5 ESE 6 9 3 5 1011.7 1011.7 0.0
23/09:30am 26.6 29.4 19.7 66 4.5 NNE 4 7 2 4 1011.8 1011.8 0.0
23/09:00am 24.5 26.7 19.3 73 3.3 NNE 6 9 3 5 1012.0 1012.0 0.0

Other Formats:

Comma delimited format used in spreadsheet applications
http://www.bom.gov.au/fwo/IDN60801/IDN60801.95767.axf

JavaScript Object Notation format (JSON) in row-major order
http://www.bom.gov.au/fwo/IDN60801/IDN60801.95767.json